Tiempo atmosférico en la estación meteorológica de Algarrobo, Málaga (80 m.)



Fecha
DESCASC
Temp. máxima en grados centígrados (hora)
DESCASC
Temp. mínima en grados centígrados (hora)
DESCASC
Temp. media en grados centígrados
DESCASC
Racha de viento máxima en m/sg (hora)
DESCASC
Velocidad máxima media en intervalos de 10 minutos(hora)
DESCASC
Precipitaciones diarias en mm
DESCASC
Precipitaciones de 00:00 a 06:00 en mm
DESCASC
Precipitaciones de 06:00 a 12:00 en mm
DESCASC
Precipitaciones de 12:00 a 18:00 en mm
DESCASC
Precipitaciones de 18:00 a 24:00 en mm
DESCASC
24-05-2020 26.1 (11:30) 17.5 (06:40) 21.8 6.67 (18:20) 4.17 (16:20) 0 0 0 0 0
23-05-2020 30.2 (13:10) 17.7 (03:20) 24 7.78 (14:00) 4.72 (14:10) 0 0 0 0 0
22-05-2020 27.8 (15:10) 15.8 (06:50) 21.8 5.83 (16:20) 3.89 (16:20) 0 0 0 0 0
21-05-2020 26.8 (12:50) 15.5 (00:00) 21.1 7.5 (14:20) 4.72 (14:10) 0 0 0 0 0
20-05-2020 28.1 (18:30) 15.5 (00:00) 21.8 5 (14:50) 2.78 (11:50) 0 0 0 0 0
19-05-2020 25.1 (14:00) 14.8 (00:00) 20 5 (19:50) 3.06 (15:20) 0 0 0 0 0
18-05-2020 23 (18:40) 13.3 (00:00) 18.2 5.28 (14:30) 3.06 (16:50) 0 0 0 0 0
17-05-2020 21.6 (14:00) 13.4 (00:00) 17.5 4.72 (13:30) 3.33 (12:20) 0 0 0 0 0
16-05-2020 20.9 (11:00) 14.2 (00:00) 17.5 4.17 (15:30) 2.78 (15:20) 0.8 0 0 0.8 0
15-05-2020 21.4 (16:10) 12 (00:00) 16.7 5.83 (17:00) 3.89 (16:20) 0 0 0 0 0
14-05-2020 20.9 (15:50) 13.1 (00:00) 17 7.78 (11:30) 3.89 (16:10) 0 0 0 0 0
13-05-2020 21.6 (17:00) 10.9 (00:00) 16.3 7.5 (20:40) 4.72 (20:40) 0 0 0 0 0
12-05-2020 18.9 (19:00) 12.6 (00:00) 15.8 7.78 (08:40) 4.72 (10:30) 27.4 5.4 21.8 0.2 0
11-05-2020 23 (18:00) 12.3 (00:00) 17.7 9.72 (12:30) 6.11 (12:30) 0 0 0 0 0
10-05-2020 21.5 (12:20) 14.3 (00:00) 17.9 9.72 (14:00) 6.39 (15:20) 0 0 0 0 0
09-05-2020 22.7 (16:50) 14.6 (00:00) 18.7 8.33 (17:20) 5.56 (18:50) 0 0 0 0 0
08-05-2020 22.8 (11:00) 15 (00:00) 18.9 6.39 (13:00) 3.89 (13:00) 0 0 0 0 0
07-05-2020 23.2 (17:10) 16.2 (00:00) 19.7 7.22 (17:20) 4.72 (14:40) 0 0 0 0 0
06-05-2020 25.7 (13:10) 14.6 (00:00) 20.2 6.67 (15:30) 3.89 (15:10) 0 0 0 0 0
05-05-2020 25 (12:50) 14.5 (00:00) 19.8 5 (11:20) 3.33 (11:30) 0 0 0 0 0
04-05-2020 27.8 (11:30) 17 (00:00) 22.4 7.22 (15:00) 4.72 (15:00) 0 0 0 0 0
03-05-2020 26.4 (13:50) 15.1 (00:00) 20.8 5.28 (13:50) 3.61 (15:00) 0 0 0 0 0
02-05-2020 26.5 (15:10) 13.5 (00:00) 20 5 (14:30) 3.33 (14:30) 0 0 0 0 0
01-05-2020 25.2 (14:20) 14 (00:00) 19.6 6.94 (14:40) 4.44 (14:40) 0 0 0 0 0
30-04-2020 25.1 (13:20) 13.1 (00:00) 19.1 14.44 (16:00) 9.17 (15:50) 0 0 0 0 0
29-04-2020 22.7 (13:30) 12.3 (00:00) 17.5 10.83 (17:00) 6.11 (17:00) 0 0 0 0 0
28-04-2020 21.1 (17:20) 11.7 (00:00) 16.4 8.61 (18:00) 5.83 (18:00) 0 0 0 0 0
27-04-2020 20.3 (18:20) 12.5 (00:00) 16.4 9.17 (19:00) 5.83 (17:30) 0 0 0 0 0

Gráficas

Temp. máximas Temp. mínimas Temp. medias Precipitaciones Rachas de viento máximas Velocidades máximas media en intervalos de 10 minutos

Datos horarios

Fecha y hora oficial Temperatura (ºC) Velocidad del viento (km/h) Dirección del viento Racha (km/h) Dirección de racha Precipitación (mm) Presión (hPa) Tendencia (hPa) Humedad (%)
2020-05-26 23:00:00 20.4 5 Sur 9 Sur 0 -- -- 78
2020-05-26 22:00:00 20.5 5 Sur 10 Sur 0 -- -- 75
2020-05-26 21:00:00 21.9 4 Sudoeste 12 Sudoeste 0 -- -- 69
2020-05-26 20:00:00 23.2 7 Sur 16 Sur 0 -- -- 65
2020-05-26 19:00:00 24.2 10 Sudoeste 18 Sudoeste 0 -- -- 61
2020-05-26 18:00:00 24.5 11 Sudoeste 17 Sudoeste 0 -- -- 60
2020-05-26 17:00:00 24.8 12 Sudoeste 19 Sudoeste 0 -- -- 56
2020-05-26 16:00:00 24.9 12 Sudoeste 20 Sur 0 -- -- 52
2020-05-26 15:00:00 25.4 14 Sudoeste 20 Sur 0 -- -- 48
2020-05-26 14:00:00 25 13 Sudoeste 19 Sudoeste 0 -- -- 49
2020-05-26 13:00:00 24.8 14 Sudoeste 18 Sudoeste 0 -- -- 50
2020-05-26 12:00:00 24.2 12 Sudoeste 19 Sudoeste 0 -- -- 53
2020-05-26 11:00:00 23.7 12 Sudoeste 15 Sudoeste 0 -- -- 50
2020-05-26 10:00:00 22.9 9 Oeste 14 Noroeste 0 -- -- 52
2020-05-26 09:00:00 20.3 5 Norte 9 Norte 0 -- -- 62
2020-05-26 08:00:00 16.7 8 Norte 11 Norte 0 -- -- 72
2020-05-26 07:00:00 15.7 8 Norte 11 Norte 0 -- -- 78
2020-05-26 06:00:00 15.9 7 Norte 11 Norte 0 -- -- 79
2020-05-26 05:00:00 16.5 6 Norte 14 Norte 0 -- -- 79
2020-05-26 04:00:00 16.6 9 Norte 12 Norte 0 -- -- 80
2020-05-26 03:00:00 16.5 5 Norte 9 Norte 0 -- -- 79
2020-05-26 02:00:00 16.8 4 Norte 8 Norte 0 -- -- 77
2020-05-26 01:00:00 16.8 4 Nordeste 6 Nordeste 0 -- -- 75
2020-05-26 00:00:00 17.5 2 Norte 5 Nordeste 0 -- -- 71
2020-05-25 23:00:00 18.2 2 Este 4 Sudeste 0 -- -- 68
2020-05-25 22:00:00 19.8 3 Sudeste 11 Sudeste 0 -- -- 64
2020-05-25 21:00:00 21.1 6 Sudeste 17 Sudeste 0 -- -- 57
2020-05-25 20:00:00 21.9 8 Sudeste 21 Sudeste 0 -- -- 66
2020-05-25 19:00:00 22.8 13 Sur 25 Sur 0 -- -- 65
2020-05-25 18:00:00 23.5 13 Sur 20 Sur 0 -- -- 63
2020-05-25 17:00:00 23.1 12 Sur 20 Sur 0 -- -- 69
2020-05-25 16:00:00 23.5 13 Sudoeste 21 Sudoeste 0 -- -- 67
2020-05-25 15:00:00 23.4 13 Sur 22 Sudoeste 0 -- -- 70
2020-05-25 14:00:00 23.4 13 Sudoeste 21 Sudoeste 0 -- -- 71
2020-05-25 13:00:00 23.1 12 Sur 20 Sur 0 -- -- 72
2020-05-25 12:00:00 22.5 11 Sudoeste 18 Sudoeste 0 -- -- 74
2020-05-25 11:00:00 22 12 Sudoeste 17 Sudoeste 0 -- -- 75
2020-05-25 10:00:00 21.7 5 Oeste 10 Oeste 0 -- -- 70
2020-05-25 09:00:00 20.2 3 Norte 11 Nordeste 0 -- -- 76
2020-05-25 08:00:00 16.9 6 Norte 12 Norte 0 -- -- 82
2020-05-25 07:00:00 16.6 5 Norte 7 Norte 0 -- -- 84
2020-05-25 06:00:00 16.9 4 Norte 9 Norte 0 -- -- 85
2020-05-25 05:00:00 17.1 6 Norte 9 Norte 0 -- -- 84
2020-05-25 04:00:00 17.7 4 Norte 6 Norte 0 -- -- 83
2020-05-25 03:00:00 18.6 4 Norte 6 Norte 0 -- -- 81
2020-05-25 02:00:00 18.5 4 Norte 6 Norte 0 -- -- 82
2020-05-25 01:00:00 17.9 3 Norte 5 Norte 0 -- -- 83
2020-05-25 00:00:00 18.2 2 Norte 4 Norte 0 -- -- 79
2020-05-24 23:00:00 19.1 2 Nordeste 4 Este 0 -- -- 75
2020-05-24 22:00:00 20.5 3 Sudeste 6 Sur 0 -- -- 71
2020-05-24 21:00:00 22.3 4 Sudoeste 10 Sudoeste 0 -- -- 61
2020-05-24 20:00:00 23.8 10 Sur 21 Sur 0 -- -- 55
2020-05-24 19:00:00 24.5 15 Sur 24 Sur 0 -- -- 51
2020-05-24 18:00:00 25.2 10 Sur 19 Sur 0 -- -- 54
2020-05-24 17:00:00 24.9 13 Sudoeste 22 Sudoeste 0 -- -- 57
2020-05-24 16:00:00 25 13 Sudoeste 19 Oeste 0 -- -- 57
2020-05-24 15:00:00 24.6 10 Sudoeste 20 Sudoeste 0 -- -- 59
2020-05-24 14:00:00 25.1 11 Sudoeste 19 Sudoeste 0 -- -- 58
2020-05-24 13:00:00 25.6 12 Sur 21 Sur 0 -- -- 55
2020-05-24 12:00:00 26 13 Sur 19 Sur 0 -- -- 48
2020-05-24 11:00:00 25.8 8 Sur 13 Sur 0 -- -- 44
2020-05-24 10:00:00 25 5 Sudoeste 10 Sudoeste 0 -- -- 47
2020-05-24 09:00:00 22.4 3 Norte 8 Norte 0 -- -- 56
2020-05-24 08:00:00 18.4 3 Sudeste 10 Norte 0 -- -- 66
2020-05-24 07:00:00 17.6 4 Norte 6 Norte 0 -- -- 65
2020-05-24 06:00:00 17.9 4 Norte 9 Norte 0 -- -- 64
2020-05-24 05:00:00 18.4 5 Norte 8 Norte 0 -- -- 63
2020-05-24 04:00:00 17.9 4 Nordeste 8 Nordeste 0 -- -- 66
2020-05-24 03:00:00 18.6 4 Norte 8 Nordeste 0 -- -- 65
2020-05-24 02:00:00 19 3 Norte 6 Norte 0 -- -- 65
2020-05-24 01:00:00 19.5 4 Nordeste 8 Norte 0 -- -- 67
2020-05-24 00:00:00 20 2 Nordeste 6 Norte 0 -- -- 66
2020-05-23 23:00:00 20.7 4 Norte 8 Norte 0 -- -- 63
2020-05-23 22:00:00 22.7 3 Nordeste 5 Sur 0 -- -- 57
2020-05-23 21:00:00 25.5 4 Sur 9 Sudoeste 0 -- -- 47
2020-05-23 20:00:00 27.2 7 Sudoeste 11 Sudoeste 0 -- -- 43
2020-05-23 19:00:00 27.1 7 Sur 12 Sudoeste 0 -- -- 42
2020-05-23 18:00:00 27.9 9 Sudoeste 16 Sudoeste 0 -- -- 44
2020-05-23 17:00:00 27.8 12 Sur 22 Sudoeste 0 -- -- 45
2020-05-23 16:00:00 29.5 14 Sur 25 Sur 0 -- -- 34
2020-05-23 15:00:00 29.4 14 Sur 26 Sudeste 0 -- -- 31
2020-05-23 14:00:00 29.5 15 Sur 28 Sur 0 -- -- 31
2020-05-23 13:00:00 30.1 10 Sur 23 Sur 0 -- -- 32
2020-05-23 12:00:00 29.4 12 Sudoeste 18 Sudoeste 0 -- -- 35
2020-05-23 11:00:00 28.9 6 Sudoeste 12 Sur 0 -- -- 45
2020-05-23 10:00:00 27 4 Sudoeste 8 Norte 0 -- -- 47
2020-05-23 09:00:00 23.4 3 Norte 11 Norte 0 -- -- 55
2020-05-23 08:00:00 18.9 5 Norte 9 Norte 0 -- -- 69
2020-05-23 07:00:00 18.6 4 Norte 14 Norte 0 -- -- 67
2020-05-23 06:00:00 19.2 8 Norte 15 Norte 0 -- -- 63
2020-05-23 05:00:00 18.7 7 Norte 14 Norte 0 -- -- 70
2020-05-23 04:00:00 17.7 5 Norte 10 Norte 0 -- -- 76
2020-05-23 03:00:00 17.9 3 Nordeste 5 Este 0 -- -- 79
2020-05-23 02:00:00 18.5 4 Norte 9 Norte 0 -- -- 79
2020-05-23 01:00:00 18.9 2 Nordeste 7 Norte 0 -- -- 78
2020-05-23 00:00:00 19.1 4 Norte 5 Norte 0 -- -- 77
2020-05-22 23:00:00 20.2 3 Este 4 Este 0 -- -- 77
2020-05-22 22:00:00 21.8 0 Calma 6 Sudoeste 0 -- -- 77
2020-05-22 21:00:00 23.9 5 Sudoeste 8 Sur 0 -- -- 69
2020-05-22 20:00:00 25.7 5 Sudoeste 13 Sur 0 -- -- 60
2020-05-22 19:00:00 26.2 9 Sur 16 Sur 0 -- -- 57
2020-05-22 18:00:00 26.1 12 Sur 19 Sudeste 0 -- -- 57
2020-05-22 17:00:00 26.9 12 Sur 21 Sudeste 0 -- -- 47
2020-05-22 16:00:00 27 14 Sur 19 Sur 0 -- -- 44
2020-05-22 15:00:00 27.6 11 Sur 18 Sur 0 -- -- 42
2020-05-22 14:00:00 26.6 9 Sudoeste 17 Sudoeste 0 -- -- 49
2020-05-22 13:00:00 27.2 7 Sur 14 Sur 0 -- -- 43
2020-05-22 12:00:00 27 8 Sur 13 Sudoeste 0 -- -- 43
2020-05-22 11:00:00 26.5 6 Sur 10 Sudoeste 0 -- -- 49
2020-05-22 10:00:00 25.2 4 Sudoeste 7 Sudoeste 0 -- -- 53
2020-05-22 09:00:00 21.7 2 Norte 5 Norte 0 -- -- 65
2020-05-22 08:00:00 17 3 Norte 8 Norte 0 -- -- 78
2020-05-22 07:00:00 15.9 4 Norte 6 Norte 0 -- -- 78
2020-05-22 06:00:00 16.2 3 Nordeste 5 Nordeste 0 -- -- 81
2020-05-22 05:00:00 16.6 0 Calma 4 Nordeste 0 -- -- 79
2020-05-22 04:00:00 17 2 Nordeste 5 Norte 0 -- -- 78
2020-05-22 03:00:00 17.6 2 Nordeste 6 Norte 0 -- -- 76
2020-05-22 02:00:00 18.4 0 Calma 5 Nordeste 0 -- -- 74
2020-05-22 01:00:00 18.8 4 Nordeste 9 Norte 0 -- -- 74
2020-05-22 00:00:00 18.4 3 Nordeste 5 Norte 0 -- -- 70
2020-05-21 23:00:00 19 0 Calma 4 Norte 0 -- -- 66
2020-05-21 22:00:00 20.6 0 Calma 4 Nordeste 0 -- -- 63
2020-05-21 21:00:00 23.6 0 Calma 6 Sudoeste 0 -- -- 54
2020-05-21 20:00:00 24.9 6 Sudoeste 13 Sudoeste 0 -- -- 57
2020-05-21 19:00:00 26.5 9 Sudoeste 15 Sur 0 -- -- 53
2020-05-21 18:00:00 26.4 10 Sur 18 Sur 0 -- -- 54
2020-05-21 17:00:00 26.4 12 Sur 25 Sudeste 0 -- -- 48
2020-05-21 16:00:00 25.5 17 Sur 24 Sudeste 0 -- -- 57
2020-05-21 15:00:00 25.7 14 Sudeste 27 Sudeste 0 -- -- 61
2020-05-21 14:00:00 26.1 14 Sudeste 23 Sudeste 0 -- -- 57
2020-05-21 13:00:00 26.5 13 Sur 20 Sudeste 0 -- -- 57
2020-05-21 12:00:00 25.2 11 Sur 17 Sur 0 -- -- 59
2020-05-21 11:00:00 24.1 9 Sur 12 Sur 0 -- -- 64
2020-05-21 10:00:00 22.6 6 Sur 9 Sur 0 -- -- 69
2020-05-21 09:00:00 20.4 3 Sudoeste 7 Sur 0 -- -- 76
2020-05-21 08:00:00 16.1 3 Norte 6 Norte 0 -- -- 89
2020-05-21 07:00:00 15.7 3 Nordeste 6 Norte 0 -- -- 89
2020-05-21 06:00:00 16.3 3 Nordeste 7 Este 0 -- -- 91
2020-05-21 05:00:00 16.3 3 Nordeste 6 Norte 0 -- -- 88
2020-05-21 04:00:00 16.5 3 Norte 6 Norte 0 -- -- 87
2020-05-21 03:00:00 16.8 0 Calma 6 Norte 0 -- -- 84
2020-05-21 02:00:00 17.7 4 Norte 6 Nordeste 0 -- -- 82
2020-05-21 01:00:00 18.4 4 Nordeste 7 Este 0 -- -- 82
2020-05-21 00:00:00 19.2 2 Nordeste 10 Este 0 -- -- 75
2020-05-20 23:00:00 19.9 5 Este 8 Este 0 -- -- 73
2020-05-20 22:00:00 21.2 3 Sudeste 6 Sur 0 -- -- 66
2020-05-20 21:00:00 23.7 4 Sur 9 Sur 0 -- -- 58
2020-05-20 20:00:00 26.6 6 Sudoeste 9 Sudoeste 0 -- -- 43
2020-05-20 19:00:00 27.7 6 Sudoeste 10 Sudoeste 0 -- -- 36
2020-05-20 18:00:00 27.9 6 Sudoeste 12 Sudoeste 0 -- -- 38
2020-05-20 17:00:00 27.1 7 Sudoeste 14 Sudoeste 0 -- -- 37
2020-05-20 16:00:00 26.5 7 Oeste 14 Sudoeste 0 -- -- 39
2020-05-20 15:00:00 24.8 10 Sudoeste 18 Oeste 0 -- -- 47
2020-05-20 14:00:00 25 9 Sudoeste 16 Sudoeste 0 -- -- 48
2020-05-20 13:00:00 24.5 8 Oeste 17 Sudoeste 0 -- -- 51
2020-05-20 12:00:00 23.9 8 Sudoeste 16 Sudoeste 0 -- -- 52
2020-05-20 11:00:00 24.5 4 Sur 11 Sudoeste 0 -- -- 48
2020-05-20 10:00:00 23.1 6 Sur 18 Sudoeste 0 -- -- 55
2020-05-20 09:00:00 21.9 6 Norte 14 Norte 0 -- -- 59
2020-05-20 08:00:00 16.4 2 Nordeste 13 Nordeste 0 -- -- 77
2020-05-20 07:00:00 15.5 4 Nordeste 8 Norte 0 -- -- 77
2020-05-20 06:00:00 16.6 2 Norte 12 Norte 0 -- -- 72
2020-05-20 05:00:00 17.6 3 Nordeste 15 Norte 0 -- -- 68
2020-05-20 04:00:00 16.6 6 Norte 10 Nordeste 0 -- -- 72
2020-05-20 03:00:00 17.1 0 Calma 11 Norte 0 -- -- 72
2020-05-20 02:00:00 18.3 6 Norte 13 Norte 0 -- -- 68
2020-05-20 01:00:00 18.6 4 Norte 11 Norte 0 -- -- 70
2020-05-20 00:00:00 18.2 4 Norte 8 Norte 0 -- -- 73
2020-05-19 23:00:00 18.7 3 Norte 7 Norte 0 -- -- 78
2020-05-19 22:00:00 19.7 2 Norte 5 Nordeste 0 -- -- 73
2020-05-19 21:00:00 22.4 3 Sudoeste 9 Sudoeste 0 -- -- 66
2020-05-19 20:00:00 22.6 6 Oeste 18 Oeste 0 -- -- 71
2020-05-19 19:00:00 23.9 8 Sudoeste 15 Sudoeste 0 -- -- 69
2020-05-19 18:00:00 24.6 10 Sudoeste 16 Sudoeste 0 -- -- 64
2020-05-19 17:00:00 24 6 Sudoeste 14 Sudoeste 0 -- -- 63
2020-05-19 16:00:00 24.1 9 Sudoeste 15 Sudoeste 0 -- -- 56
2020-05-19 15:00:00 23.7 10 Sudoeste 15 Sudoeste 0 -- -- 56
2020-05-19 14:00:00 25.1 7 Sudoeste 14 Sudoeste 0 -- -- 54
2020-05-19 13:00:00 24 6 Sudoeste 13 Sudoeste 0 -- -- 59
2020-05-19 12:00:00 23 5 Sudoeste 12 Sur 0 -- -- 62
2020-05-19 11:00:00 24.4 7 Sur 10 Sur 0 -- -- 58
2020-05-19 10:00:00 22.7 2 Sur 4 Sudoeste 0 -- -- 59
2020-05-19 09:00:00 19.3 2 Norte 4 Norte 0 -- -- 78
2020-05-19 08:00:00 14.8 0 Calma 9 Norte 0 -- -- 84
2020-05-19 07:00:00 15.2 6 Norte 11 Norte 0 -- -- 80
2020-05-19 06:00:00 14.9 3 Norte 9 Norte 0 -- -- 82
2020-05-19 05:00:00 15.3 3 Nordeste 14 Norte 0 -- -- 80
2020-05-19 04:00:00 15.9 8 Nordeste 14 Norte 0 -- -- 78
2020-05-19 03:00:00 15 3 Norte 9 Norte 0 -- -- 82
2020-05-19 02:00:00 15.3 2 Este 8 Nordeste 0 -- -- 80
2020-05-19 01:00:00 15.6 2 Nordeste 8 Nordeste 0 -- -- 81
2020-05-19 00:00:00 16.4 3 Norte 9 Noroeste 0 -- -- 78
2020-05-18 23:00:00 16.9 0 Calma 6 Norte 0 -- -- 75
2020-05-18 22:00:00 18.4 4 Nordeste 5 Nordeste 0 -- -- 69
2020-05-18 21:00:00 21 3 Sudoeste 7 Sudoeste 0 -- -- 62
2020-05-18 20:00:00 22.3 5 Sudoeste 10 Sudoeste 0 -- -- 60
2020-05-18 19:00:00 22.8 6 Sudoeste 12 Sudoeste 0 -- -- 64
2020-05-18 18:00:00 22.7 9 Sudoeste 15 Oeste 0 -- -- 60
2020-05-18 17:00:00 22.2 10 Sudoeste 18 Sudoeste 0 -- -- 62
2020-05-18 16:00:00 22 10 Sudoeste 15 Sudoeste 0 -- -- 60
2020-05-18 15:00:00 21.3 8 Sudoeste 19 Sudoeste 0 -- -- 75
2020-05-18 14:00:00 21.5 9 Sudoeste 17 Sur 0 -- -- 72
2020-05-18 13:00:00 21.4 9 Sur 16 Sudoeste 0 -- -- 74
2020-05-18 12:00:00 21.1 8 Sur 14 Sur 0 -- -- 70
2020-05-18 11:00:00 20.6 8 Sur 13 Sur 0 -- -- 66
2020-05-18 10:00:00 19.4 8 Sur 11 Sur 0 -- -- 67
2020-05-18 09:00:00 17.5 3 Sur 7 Sudeste 0 -- -- 77
2020-05-18 08:00:00 13.5 2 Nordeste 8 Norte 0 -- -- 89
2020-05-18 07:00:00 13.4 4 Norte 12 Norte 0 -- -- 86
2020-05-18 06:00:00 14.3 5 Norte 13 Norte 0 -- -- 82
2020-05-18 05:00:00 14.7 9 Norte 16 Norte 0 -- -- 80
2020-05-18 04:00:00 14.3 5 Norte 10 Norte 0 -- -- 82
2020-05-18 03:00:00 14.8 6 Norte 13 Norte 0 -- -- 81
2020-05-18 02:00:00 14.7 7 Norte 13 Norte 0 -- -- 82
2020-05-18 01:00:00 14.3 5 Norte 10 Norte 0 -- -- 83
2020-05-18 00:00:00 14.9 4 Nordeste 8 Nordeste 0 -- -- 84
2020-05-17 23:00:00 15.6 2 Sudeste 7 Norte 0 -- -- 84
2020-05-17 22:00:00 17.3 2 Nordeste 4 Nordeste 0 -- -- 83
2020-05-17 21:00:00 19.8 3 Sudoeste 9 Sudoeste 0 -- -- 73
2020-05-17 20:00:00 20.9 8 Sudoeste 12 Oeste 0 -- -- 71
2020-05-17 19:00:00 20.9 9 Sudoeste 15 Sur 0 -- -- 74
2020-05-17 18:00:00 20.4 8 Sudoeste 11 Sudoeste 0 -- -- 72
2020-05-17 17:00:00 19.9 8 Sur 10 Sur 0 -- -- 61
2020-05-17 16:00:00 19.2 4 Sudeste 9 Sudeste 0 -- -- 69
2020-05-17 15:00:00 19.4 6 Sur 15 Sudoeste 0 -- -- 72
2020-05-17 14:00:00 21.6 10 Sur 17 Sudoeste 0 -- -- 62
2020-05-17 13:00:00 20.8 10 Sudoeste 16 Sur 0 -- -- 64
2020-05-17 12:00:00 21 9 Sur 16 Sur 0 -- -- 63
2020-05-17 11:00:00 20.8 10 Sur 14 Sur 0 -- -- 63
2020-05-17 10:00:00 17.5 0 Calma 3 Sur 0 -- -- 77
2020-05-17 09:00:00 15.7 0 Calma 6 Noroeste 0 -- -- 86
2020-05-17 08:00:00 14 3 Norte 6 Norte 0 -- -- 89
2020-05-17 07:00:00 13.7 4 Norte 9 Norte 0 -- -- 88
2020-05-17 06:00:00 13.5 6 Norte 10 Norte 0 -- -- 88
2020-05-17 05:00:00 13.9 2 Norte 9 Norte 0 -- -- 87
2020-05-17 04:00:00 14.2 3 Norte 10 Nordeste 0 -- -- 86
2020-05-17 03:00:00 14.4 6 Nordeste 11 Nordeste 0 -- -- 85
2020-05-17 02:00:00 14.9 3 Norte 8 Noroeste 0 -- -- 86
2020-05-17 01:00:00 15 6 Norte 10 Norte 0 -- -- 84
2020-05-17 00:00:00 14.9 6 Norte 11 Norte 0 -- -- 86
2020-05-16 23:00:00 15.3 2 Este 11 Norte 0 -- -- 84
2020-05-16 22:00:00 15.9 3 Nordeste 8 Norte 0 -- -- 82
2020-05-16 21:00:00 17.7 0 Calma 5 Nordeste 0 -- -- 76
2020-05-16 20:00:00 18.2 2 Norte 6 Nordeste 0 -- -- 75
2020-05-16 19:00:00 18 4 Sudoeste 9 Sudoeste 0 -- -- 71
2020-05-16 18:00:00 19.3 3 Sudoeste 8 Oeste 0 -- -- 66
2020-05-16 17:00:00 19.7 6 Sudoeste 11 Sudoeste 0 -- -- 66
2020-05-16 16:00:00 19.8 9 Sudoeste 15 Sudoeste 0 -- -- 68
2020-05-16 15:00:00 19.8 4 Noroeste 10 Nordeste 0.4 -- -- 72
2020-05-16 14:00:00 19.1 5 Nordeste 15 Sudeste 0.4 -- -- 81
2020-05-16 13:00:00 19.4 6 Sur 12 Sur 0 -- -- 63
2020-05-16 12:00:00 20.2 8 Sudoeste 13 Sur 0 -- -- 60
2020-05-16 11:00:00 20.9 8 Sudoeste 13 Sudoeste 0 -- -- 63
2020-05-16 10:00:00 18.8 3 Norte 6 Norte 0 -- -- 66
2020-05-16 09:00:00 15.8 0 Calma 4 Nordeste 0 -- -- 81
2020-05-16 08:00:00 14.6 3 Norte 13 Norte 0 -- -- 81
2020-05-16 07:00:00 14.3 5 Norte 12 Norte 0 -- -- 81
2020-05-16 06:00:00 14.5 3 Nordeste 8 Norte 0 -- -- 86
2020-05-16 05:00:00 14.5 3 Norte 5 Norte 0 -- -- 86
2020-05-16 04:00:00 14.7 2 Norte 5 Norte 0 -- -- 86
2020-05-16 03:00:00 15 6 Norte 9 Norte 0 -- -- 84
2020-05-16 02:00:00 15 3 Nordeste 4 Nordeste 0 -- -- 84
2020-05-16 01:00:00 15 2 Nordeste 6 Norte 0 -- -- 84
2020-05-16 00:00:00 15.1 3 Norte 8 Nordeste 0 -- -- 83
2020-05-15 23:00:00 15.6 4 Norte 8 Norte 0 -- -- 85
2020-05-15 22:00:00 16.6 2 Este 7 Sur 0 -- -- 83
2020-05-15 21:00:00 17.6 6 Sur 10 Sur 0 -- -- 74
2020-05-15 20:00:00 19 8 Sur 14 Sur 0 -- -- 69
2020-05-15 19:00:00 20.4 12 Sur 17 Sur 0 -- -- 66
2020-05-15 18:00:00 20 9 Sudeste 18 Sur 0 -- -- 67
2020-05-15 17:00:00 19.9 13 Sur 21 Sur 0 -- -- 71
2020-05-15 16:00:00 21.3 10 Sur 20 Sur 0 -- -- 57
2020-05-15 15:00:00 21.1 12 Sur 18 Sur 0 -- -- 62
2020-05-15 14:00:00 20.2 11 Sur 18 Sur 0 -- -- 67
2020-05-15 13:00:00 19.8 8 Sur 18 Sudoeste 0 -- -- 67
2020-05-15 12:00:00 19.7 10 Sur 15 Sur 0 -- -- 67
2020-05-15 11:00:00 18.8 5 Sur 11 Sudoeste 0 -- -- 68
2020-05-15 10:00:00 18.1 8 Sur 13 Sur 0 -- -- 66
2020-05-15 09:00:00 16.5 5 Este 13 Este 0 -- -- 68
2020-05-15 08:00:00 12 2 Este 10 Norte 0 -- -- 82
2020-05-15 07:00:00 12.9 4 Norte 14 Noroeste 0 -- -- 78
2020-05-15 06:00:00 13.2 8 Norte 13 Noroeste 0 -- -- 81
2020-05-15 05:00:00 13.3 8 Norte 14 Norte 0 -- -- 79
2020-05-15 04:00:00 13.5 5 Norte 9 Norte 0 -- -- 83
2020-05-15 03:00:00 14.1 4 Norte 9 Norte 0 -- -- 84
2020-05-15 02:00:00 13.8 4 Norte 6 Norte 0 -- -- 87
2020-05-15 01:00:00 14.8 4 Norte 15 Noroeste 0 -- -- 84
2020-05-15 00:00:00 15.5 12 Noroeste 22 Noroeste 0 -- -- 80
2020-05-14 23:00:00 15.2 4 Nordeste 14 Norte 0 -- -- 75
2020-05-14 22:00:00 16.9 8 Norte 14 Noroeste 0 -- -- 68
2020-05-14 21:00:00 18.1 5 Norte 13 Oeste 0 -- -- 61
2020-05-14 20:00:00 19.4 4 Noroeste 10 Oeste 0 -- -- 56
2020-05-14 19:00:00 18.8 5 Noroeste 9 Sudoeste 0 -- -- 61
2020-05-14 18:00:00 18.3 8 Sudoeste 18 Sudoeste 0 -- -- 62
2020-05-14 17:00:00 19.3 11 Sudoeste 22 Sudoeste 0 -- -- 61
2020-05-14 16:00:00 20.5 12 Sudoeste 27 Sudoeste 0 -- -- 53
2020-05-14 15:00:00 19.3 6 Sudoeste 20 Noroeste 0 -- -- 60
2020-05-14 14:00:00 17.2 5 Oeste 20 Sudoeste 0 -- -- 75
2020-05-14 13:00:00 17.5 10 Oeste 21 Sudoeste 0 -- -- 65
2020-05-14 12:00:00 17.4 9 Oeste 28 Oeste 0 -- -- 66
2020-05-14 11:00:00 17.7 11 Oeste 26 Oeste 0 -- -- 63
2020-05-14 10:00:00 16.8 6 Noroeste 19 Oeste 0 -- -- 64
2020-05-14 09:00:00 14.9 6 Noroeste 17 Noroeste 0 -- -- 71
2020-05-14 08:00:00 13.1 6 Norte 17 Norte 0 -- -- 81
2020-05-14 07:00:00 13.8 11 Oeste 25 Oeste 0 -- -- 77
2020-05-14 06:00:00 13.6 3 Nordeste 4 Este 0 -- -- 91
2020-05-14 05:00:00 13.6 2 Norte 4 Nordeste 0 -- -- 91
2020-05-14 04:00:00 14.2 0 Calma 5 Este 0 -- -- 87
2020-05-14 03:00:00 14.8 3 Este 5 Sudoeste 0 -- -- 85
2020-05-14 02:00:00 15.1 3 Sudoeste 24 Sudoeste 0 -- -- 83
2020-05-14 01:00:00 15.3 9 Sudoeste 23 Sudoeste 0 -- -- 81
2020-05-14 00:00:00 15.4 8 Oeste 23 Sudoeste 0 -- -- 85
2020-05-13 23:00:00 15.9 9 Sudoeste 25 Sudoeste 0 -- -- 86
2020-05-13 22:00:00 17.2 0 Calma 26 Oeste 0 -- -- 74
2020-05-13 21:00:00 17.7 11 Noroeste 27 Sudoeste 0 -- -- 69
2020-05-13 20:00:00 18.3 6 Oeste 20 Oeste 0 -- -- 65
2020-05-13 19:00:00 20.5 7 Sudoeste 15 Sudoeste 0 -- -- 56
2020-05-13 18:00:00 20.8 4 Sudoeste 13 Sudoeste 0 -- -- 53
2020-05-13 17:00:00 21.6 7 Noroeste 12 Noroeste 0 -- -- 47
2020-05-13 16:00:00 21.1 9 Sudoeste 15 Sur 0 -- -- 55
2020-05-13 15:00:00 20.3 10 Sur 18 Sudoeste 0 -- -- 60
2020-05-13 14:00:00 19.6 9 Sur 17 Sudoeste 0 -- -- 66
2020-05-13 13:00:00 19.2 12 Sudoeste 17 Sudoeste 0 -- -- 64
2020-05-13 12:00:00 18.7 11 Sudoeste 17 Sudoeste 0 -- -- 62
2020-05-13 11:00:00 18.7 9 Sudoeste 13 Sudoeste 0 -- -- 57
2020-05-13 10:00:00 17.8 2 Oeste 6 Sudeste 0 -- -- 60
2020-05-13 09:00:00 15.2 2 Norte 10 Norte 0 -- -- 77
2020-05-13 08:00:00 11.4 7 Norte 11 Norte 0 -- -- 85
2020-05-13 07:00:00 11.3 3 Nordeste 17 Norte 0 -- -- 83
2020-05-13 06:00:00 11.7 6 Norte 10 Norte 0 -- -- 83
2020-05-13 05:00:00 12 4 Norte 13 Norte 0 -- -- 84
2020-05-13 04:00:00 11.8 7 Norte 11 Norte 0 -- -- 85
2020-05-13 03:00:00 12.3 4 Norte 11 Norte 0 -- -- 87
2020-05-13 02:00:00 12.4 8 Norte 11 Norte 0 -- -- 89
2020-05-13 01:00:00 12.6 4 Norte 7 Norte 0 -- -- 91
2020-05-13 00:00:00 13 4 Norte 9 Norte 0 -- -- 88
2020-05-12 23:00:00 13.8 4 Norte 12 Norte 0 -- -- 87
2020-05-12 22:00:00 14.5 3 Nordeste 6 Nordeste 0 -- -- 84
2020-05-12 21:00:00 16.9 0 Calma 11 Sudoeste 0 -- -- 73
2020-05-12 20:00:00 18.2 4 Sudoeste 12 Sudoeste 0 -- -- 68
2020-05-12 19:00:00 18.9 5 Sudoeste 19 Sudoeste 0 -- -- 64
2020-05-12 18:00:00 18.3 10 Sudoeste 22 Sudoeste 0 -- -- 74
2020-05-12 17:00:00 17.3 9 Sudoeste 21 Sudoeste 0 -- -- 77
2020-05-12 16:00:00 16.8 11 Oeste 26 Sudoeste 0 -- -- 77
2020-05-12 15:00:00 18 8 Sudoeste 23 Sudoeste 0.2 -- -- 70
2020-05-12 14:00:00 17.7 13 Sudoeste 21 Oeste 0 -- -- 72
2020-05-12 13:00:00 14.5 12 Norte 21 Noroeste 0 -- -- 87
2020-05-12 12:00:00 13.1 8 Este 24 Nordeste 2.8 -- -- 90
2020-05-12 11:00:00 12.9 8 Norte 27 Noroeste 5.2 -- -- 93
2020-05-12 10:00:00 13.4 15 Noroeste 24 Noroeste 4.4 -- -- 92
2020-05-12 09:00:00 13.8 16 Noroeste 28 Noroeste 3 -- -- 92
2020-05-12 08:00:00 13.8 11 Noroeste 26 Norte 3.2 -- -- 91
2020-05-12 07:00:00 14.2 15 Noroeste 25 Noroeste 3.2 -- -- 91
2020-05-12 06:00:00 14.6 4 Este 13 Este 3.8 -- -- 87
2020-05-12 05:00:00 16.4 5 Noroeste 20 Sudoeste 1.6 -- -- 83
2020-05-12 04:00:00 17.7 8 Norte 14 Norte 0 -- -- 65
2020-05-12 03:00:00 17.7 4 Nordeste 11 Noroeste 0 -- -- 66
2020-05-12 02:00:00 17.5 5 Norte 13 Norte 0 -- -- 61
2020-05-12 01:00:00 17.6 6 Norte 12 Norte 0 -- -- 68
2020-05-12 00:00:00 18.1 8 Norte 15 Norte 0 -- -- 70
2020-05-11 23:00:00 18.2 5 Norte 11 Norte 0 -- -- 72
2020-05-11 22:00:00 18.6 4 Este 10 Este 0 -- -- 70
2020-05-11 21:00:00 19.6 6 Este 10 Sudoeste 0 -- -- 67
2020-05-11 20:00:00 21 7 Sudoeste 14 Sudoeste 0 -- -- 61
2020-05-11 19:00:00 22.9 8 Oeste 24 Sudoeste 0 -- -- 54
2020-05-11 18:00:00 23 12 Sudoeste 21 Sudoeste 0 -- -- 56
2020-05-11 17:00:00 21.4 10 Sudoeste 26 Oeste 0 -- -- 61
2020-05-11 16:00:00 21.5 13 Sudoeste 28 Sur 0 -- -- 64
2020-05-11 15:00:00 20.6 9 Sudoeste 24 Sur 0 -- -- 65
2020-05-11 14:00:00 20.6 12 Sudoeste 30 Oeste 0 -- -- 66
2020-05-11 13:00:00 19.7 18 Sudoeste 35 Sudoeste 0 -- -- 68
2020-05-11 12:00:00 19.2 16 Sudoeste 28 Sudoeste 0 -- -- 73
2020-05-11 11:00:00 18.6 13 Sudoeste 26 Oeste 0 -- -- 74
2020-05-11 10:00:00 18 15 Sudoeste 23 Sudoeste 0 -- -- 72
2020-05-11 09:00:00 16.7 6 Oeste 13 Noroeste 0 -- -- 64
2020-05-11 08:00:00 14.5 10 Norte 18 Noroeste 0 -- -- 70
2020-05-11 07:00:00 14.4 12 Noroeste 19 Noroeste 0 -- -- 69
2020-05-11 06:00:00 14.2 12 Noroeste 17 Noroeste 0 -- -- 70
2020-05-11 05:00:00 12.7 0 Calma 8 Noroeste 0 -- -- 76
2020-05-11 04:00:00 14.1 5 Noroeste 16 Noroeste 0 -- -- 71
2020-05-11 03:00:00 15.8 12 Noroeste 19 Noroeste 0 -- -- 62
2020-05-11 02:00:00 16.7 11 Noroeste 32 Norte 0 -- -- 56
2020-05-11 01:00:00 14.2 4 Norte 15 Norte 0 -- -- 75
2020-05-11 00:00:00 15.6 3 Oeste 9 Noroeste 0 -- -- 69
2020-05-10 23:00:00 17 4 Este 12 Sudeste 0 -- -- 72
2020-05-10 22:00:00 17.6 4 Norte 17 Sudoeste 0 -- -- 71
2020-05-10 21:00:00 18.9 4 Este 9 Sudeste 0 -- -- 68
2020-05-10 20:00:00 19.4 5 Oeste 21 Sudoeste 0 -- -- 65
2020-05-10 19:00:00 20.1 9 Sudoeste 19 Oeste 0 -- -- 71
2020-05-10 18:00:00 19.3 13 Sudoeste 28 Sudoeste 0 -- -- 75
2020-05-10 17:00:00 19.2 17 Sudoeste 27 Sudoeste 0 -- -- 74
2020-05-10 16:00:00 18.5 6 Oeste 33 Oeste 0 -- -- 80
2020-05-10 15:00:00 18.6 18 Sudoeste 32 Sudoeste 0 -- -- 72
2020-05-10 14:00:00 18.3 22 Oeste 35 Oeste 0 -- -- 74
2020-05-10 13:00:00 20.1 14 Sudoeste 29 Norte 0 -- -- 62
2020-05-10 12:00:00 21 19 Noroeste 31 Noroeste 0 -- -- 49
2020-05-10 11:00:00 19.4 15 Noroeste 34 Norte 0 -- -- 57
2020-05-10 10:00:00 19.4 19 Noroeste 34 Noroeste 0 -- -- 55
2020-05-10 09:00:00 18.1 11 Noroeste 26 Norte 0 -- -- 63
2020-05-10 08:00:00 15.9 13 Noroeste 20 Noroeste 0 -- -- 69
2020-05-10 07:00:00 14.4 6 Norte 14 Oeste 0 -- -- 77
2020-05-10 06:00:00 16.5 10 Oeste 17 Sudoeste 0 -- -- 70
2020-05-10 05:00:00 16.7 8 Noroeste 27 Noroeste 0 -- -- 63
2020-05-10 04:00:00 17.7 19 Noroeste 32 Oeste 0 -- -- 59
2020-05-10 03:00:00 16.8 4 Norte 10 Sudoeste 0 -- -- 84
2020-05-10 02:00:00 17.3 2 Sudeste 23 Sudoeste 0 -- -- 83
2020-05-10 01:00:00 17.5 7 Sudoeste 15 Sudoeste 0 -- -- 81
2020-05-10 00:00:00 17.8 3 Norte 13 Noroeste 0 -- -- 74
2020-05-09 23:00:00 18.2 4 Oeste 12 Oeste 0 -- -- 71
2020-05-09 22:00:00 18.5 6 Este 10 Este 0 -- -- 71
2020-05-09 21:00:00 19.5 10 Sudoeste 18 Sudoeste 0 -- -- 67
2020-05-09 20:00:00 20.5 13 Sudoeste 28 Sudoeste 0 -- -- 64
2020-05-09 19:00:00 21.9 17 Sudoeste 30 Oeste 0 -- -- 61
2020-05-09 18:00:00 21.9 16 Sudoeste 30 Sudoeste 0 -- -- 59
2020-05-09 17:00:00 22.5 16 Sudoeste 24 Sudoeste 0 -- -- 57
2020-05-09 16:00:00 22 14 Sudoeste 30 Sudoeste 0 -- -- 62
2020-05-09 15:00:00 21.9 15 Sudoeste 26 Oeste 0 -- -- 65
2020-05-09 14:00:00 22.2 14 Sudoeste 23 Sur 0 -- -- 60
2020-05-09 13:00:00 21 13 Sudoeste 22 Sudoeste 0 -- -- 69
2020-05-09 12:00:00 21.3 10 Sur 15 Sur 0 -- -- 72
2020-05-09 11:00:00 19.5 9 Sudoeste 20 Sudoeste 0 -- -- 79
2020-05-09 10:00:00 20.2 9 Sudoeste 16 Sudoeste 0 -- -- 75
2020-05-09 09:00:00 18.2 6 Noroeste 14 Oeste 0 -- -- 78
2020-05-09 08:00:00 15.2 4 Norte 15 Noroeste 0 -- -- 83
2020-05-09 07:00:00 14.8 5 Norte 10 Nordeste 0 -- -- 88
2020-05-09 06:00:00 15.5 9 Norte 12 Norte 0 -- -- 90
2020-05-09 05:00:00 16.3 2 Noroeste 12 Norte 0 -- -- 86
2020-05-09 04:00:00 16.8 9 Norte 14 Norte 0 -- -- 86
2020-05-09 03:00:00 16.4 5 Norte 9 Norte 0 -- -- 87
2020-05-09 02:00:00 17.1 4 Norte 7 Norte 0 -- -- 87
2020-05-09 01:00:00 18.2 0 Calma 5 Nordeste 0 -- -- 86
2020-05-09 00:00:00 18 3 Nordeste 6 Nordeste 0 -- -- 84
2020-05-08 23:00:00 19 0 Calma 5 Sudoeste 0 -- -- 80
2020-05-08 22:00:00 19.2 4 Sur 6 Sur 0 -- -- 82
2020-05-08 21:00:00 19.4 2 Sudoeste 9 Sur 0 -- -- 82
2020-05-08 20:00:00 19.8 5 Sur 10 Sur 0 -- -- 82
2020-05-08 19:00:00 20.4 5 Sur 12 Sur 0 -- -- 79
2020-05-08 18:00:00 20.9 7 Sudoeste 13 Sudoeste 0 -- -- 79
2020-05-08 17:00:00 21.1 8 Sur 15 Sur 0 -- -- 79
2020-05-08 16:00:00 21.3 10 Sur 15 Sudoeste 0 -- -- 78
2020-05-08 15:00:00 20.5 10 Sur 18 Sur 0 -- -- 80
2020-05-08 14:00:00 21.4 10 Sur 20 Sur 0 -- -- 76
2020-05-08 13:00:00 22.6 14 Sur 23 Sur 0 -- -- 70
2020-05-08 12:00:00 22.6 9 Sur 20 Sudeste 0 -- -- 63
2020-05-08 11:00:00 22.8 7 Sur 15 Sur 0 -- -- 56
2020-05-08 10:00:00 21.7 5 Sudeste 10 Sudeste 0 -- -- 59
2020-05-08 09:00:00 18.8 2 Norte 6 Norte 0 -- -- 70
2020-05-08 08:00:00 15.6 0 Calma 10 Norte 0 -- -- 81
2020-05-08 07:00:00 15.5 4 Norte 13 Norte 0 -- -- 76
2020-05-08 06:00:00 16.4 8 Norte 11 Norte 0 -- -- 73
2020-05-08 05:00:00 16.5 8 Norte 13 Norte 0 -- -- 72
2020-05-08 04:00:00 16.3 5 Norte 10 Norte 0 -- -- 77
2020-05-08 03:00:00 16 5 Norte 10 Norte 0 -- -- 79
2020-05-08 02:00:00 16.1 4 Norte 14 Norte 0 -- -- 80
2020-05-08 01:00:00 16.2 4 Norte 9 Nordeste 0 -- -- 82
2020-05-08 00:00:00 16.9 3 Nordeste 9 Norte 0 -- -- 79
2020-05-07 23:00:00 17.3 4 Norte 6 Norte 0 -- -- 81
2020-05-07 22:00:00 18.6 3 Nordeste 8 Este 0 -- -- 78
2020-05-07 21:00:00 20.6 4 Sudoeste 22 Sudoeste 0 -- -- 72
2020-05-07 20:00:00 21.6 12 Sudoeste 22 Sudoeste 0 -- -- 69
2020-05-07 19:00:00 22 14 Sudoeste 23 Sudoeste 0 -- -- 70
2020-05-07 18:00:00 22.5 14 Sudoeste 26 Sudoeste 0 -- -- 69
2020-05-07 17:00:00 23.1 13 Sudoeste 22 Sudoeste 0 -- -- 66
2020-05-07 16:00:00 21.8 11 Sudoeste 21 Oeste 0 -- -- 73
2020-05-07 15:00:00 21.4 10 Oeste 24 Sudoeste 0 -- -- 74
2020-05-07 14:00:00 22.3 10 Sudoeste 17 Oeste 0 -- -- 72
2020-05-07 13:00:00 20.6 12 Sudoeste 18 Sudoeste 0 -- -- 81
2020-05-07 12:00:00 20.3 11 Sudoeste 21 Oeste 0 -- -- 82
2020-05-07 11:00:00 20.3 9 Sudoeste 16 Sudoeste 0 -- -- 82
2020-05-07 10:00:00 20.1 6 Sudoeste 10 Sudoeste 0 -- -- 81
2020-05-07 09:00:00 18.3 2 Noroeste 8 Norte 0 -- -- 89
2020-05-07 08:00:00 16.6 3 Norte 5 Norte 0 -- -- 94
2020-05-07 07:00:00 16.2 2 Norte 6 Norte 0 -- -- 93
2020-05-07 06:00:00 16.3 2 Norte 5 Norte 0 -- -- 91
2020-05-07 05:00:00 17.2 0 Calma 12 Este 0 -- -- 88
2020-05-07 04:00:00 18.3 7 Sudeste 19 Sudeste 0 -- -- 91
2020-05-07 03:00:00 18.4 8 Sudeste 15 Sudeste 0 -- -- 89
2020-05-07 02:00:00 17.8 2 Norte 7 Sudoeste 0 -- -- 78
2020-05-07 01:00:00 18 0 Calma 8 Norte 0 -- -- 76
2020-05-07 00:00:00 18.1 3 Norte 9 Nordeste 0 -- -- 75
2020-05-06 23:00:00 18.1 2 Norte 5 Norte 0 -- -- 81
2020-05-06 22:00:00 19.1 0 Calma 5 Norte 0 -- -- 81
2020-05-06 21:00:00 20.2 3 Sudeste 11 Sur 0 -- -- 78
2020-05-06 20:00:00 21.8 6 Sur 15 Sur 0 -- -- 67
2020-05-06 19:00:00 23.8 9 Sur 14 Sudoeste 0 -- -- 56
2020-05-06 18:00:00 24 7 Sudoeste 17 Sudoeste 0 -- -- 56
2020-05-06 17:00:00 23.8 10 Sur 19 Sur 0 -- -- 62
2020-05-06 16:00:00 22.5 13 Sur 24 Sudeste 0 -- -- 75
2020-05-06 15:00:00 24.3 12 Sur 18 Sur 0 -- -- 61
2020-05-06 14:00:00 24.8 8 Sur 16 Sudoeste 0 -- -- 60
2020-05-06 13:00:00 25.5 9 Sudoeste 13 Sudoeste 0 -- -- 51
2020-05-06 12:00:00 23.7 9 Sudoeste 13 Sudoeste 0 -- -- 63
2020-05-06 11:00:00 23 8 Sudoeste 12 Sudoeste 0 -- -- 65
2020-05-06 10:00:00 21.1 4 Sudoeste 6 Sudoeste 0 -- -- 74
2020-05-06 09:00:00 18.5 3 Norte 8 Sur 0 -- -- 83
2020-05-06 08:00:00 15 3 Norte 5 Sur 0 -- -- 88
2020-05-06 07:00:00 14.7 3 Norte 8 Norte 0 -- -- 88
2020-05-06 06:00:00 15.1 0 Calma 7 Norte 0 -- -- 87
2020-05-06 05:00:00 15.3 5 Norte 10 Norte 0 -- -- 89
2020-05-06 04:00:00 15.4 3 Nordeste 5 Sudeste 0 -- -- 90
2020-05-06 03:00:00 15.9 3 Norte 6 Norte 0 -- -- 88
2020-05-06 02:00:00 16.8 4 Nordeste 10 Este 0 -- -- 88
2020-05-06 01:00:00 17.4 4 Norte 8 Sudeste 0 -- -- 88
2020-05-06 00:00:00 17.3 0 Calma 4 Norte 0 -- -- 87
2020-05-05 23:00:00 18.3 0 Calma 4 Sur 0 -- -- 84
2020-05-05 22:00:00 19.2 2 Norte 8 Nordeste 0 -- -- 80
2020-05-05 21:00:00 20.8 3 Sur 8 Sudoeste 0 -- -- 73
2020-05-05 20:00:00 22.5 4 Sudoeste 12 Sur 0 -- -- 66
2020-05-05 19:00:00 23.1 5 Sudoeste 13 Sudoeste 0 -- -- 65
2020-05-05 18:00:00 24.3 6 Sur 13 Sudoeste 0 -- -- 61
2020-05-05 17:00:00 24.1 6 Sudoeste 14 Sudoeste 0 -- -- 62
2020-05-05 16:00:00 23.8 9 Sudoeste 18 Sudoeste 0 -- -- 58
2020-05-05 15:00:00 23.3 10 Sudoeste 17 Sudoeste 0 -- -- 59
2020-05-05 14:00:00 23.5 9 Sudoeste 14 Oeste 0 -- -- 61
2020-05-05 13:00:00 24.3 12 Sur 15 Sudoeste 0 -- -- 60
2020-05-05 12:00:00 22.3 8 Sur 18 Sudeste 0 -- -- 68
2020-05-05 11:00:00 22.9 8 Sur 12 Sudeste 0 -- -- 62
2020-05-05 10:00:00 21 7 Sur 12 Sudoeste 0 -- -- 67
2020-05-05 09:00:00 18.2 3 Sur 6 Nordeste 0 -- -- 75
2020-05-05 08:00:00 14.8 2 Sudeste 5 Norte 0 -- -- 85
2020-05-05 07:00:00 14.9 0 Calma 8 Norte 0 -- -- 83
2020-05-05 06:00:00 15.4 0 Calma 7 Norte 0 -- -- 81
2020-05-05 05:00:00 16.2 3 Norte 7 Sudeste 0 -- -- 79
2020-05-05 04:00:00 17 0 Calma 6 Norte 0 -- -- 76
2020-05-05 03:00:00 18.1 4 Norte 13 Norte 0 -- -- 72
2020-05-05 02:00:00 18.6 11 Norte 17 Norte 0 -- -- 71
2020-05-05 01:00:00 17.6 5 Nordeste 8 Norte 0 -- -- 75
2020-05-05 00:00:00 17.9 3 Norte 7 Norte 0 -- -- 73
2020-05-04 23:00:00 19.3 4 Sudeste 9 Sudeste 0 -- -- 67
2020-05-04 22:00:00 20.3 3 Este 6 Sudeste 0 -- -- 64
2020-05-04 21:00:00 21.9 3 Sudeste 9 Sudoeste 0 -- -- 58
2020-05-04 20:00:00 23.9 5 Sudoeste 13 Sudoeste 0 -- -- 55
2020-05-04 19:00:00 25.2 9 Sudoeste 23 Sudoeste 0 -- -- 48
2020-05-04 18:00:00 24.7 12 Sudoeste 22 Sudoeste 0 -- -- 53
2020-05-04 17:00:00 24.9 13 Sudoeste 20 Oeste 0 -- -- 53
2020-05-04 16:00:00 25.2 13 Sudoeste 25 Sudoeste 0 -- -- 50
2020-05-04 15:00:00 24.3 17 Sudoeste 26 Oeste 0 -- -- 55
2020-05-04 14:00:00 24 13 Sudoeste 20 Oeste 0 -- -- 57
2020-05-04 13:00:00 24.7 8 Sudoeste 17 Oeste 0 -- -- 53
2020-05-04 12:00:00 23.9 12 Sudoeste 23 Sudoeste 0 -- -- 56
2020-05-04 11:00:00 27.3 5 Sudoeste 11 Sudoeste 0 -- -- 42
2020-05-04 10:00:00 25.4 2 Sur 6 Sudoeste 0 -- -- 52
2020-05-04 09:00:00 22.4 4 Norte 12 Nordeste 0 -- -- 55
2020-05-04 08:00:00 21.3 7 Norte 13 Norte 0 -- -- 51
2020-05-04 07:00:00 18.7 9 Norte 12 Norte 0 -- -- 60
2020-05-04 06:00:00 19.4 9 Norte 14 Norte 0 -- -- 61
2020-05-04 05:00:00 18.9 8 Norte 14 Norte 0 -- -- 62
2020-05-04 04:00:00 17.1 5 Norte 8 Norte 0 -- -- 74
2020-05-04 03:00:00 17.1 4 Nordeste 8 Nordeste 0 -- -- 76
2020-05-04 02:00:00 17.8 0 Calma 11 Nordeste 0 -- -- 76
2020-05-04 01:00:00 17.9 5 Norte 8 Norte 0 -- -- 73
2020-05-04 00:00:00 18.1 4 Norte 8 Norte 0 -- -- 74
2020-05-03 23:00:00 18.3 0 Calma 5 Norte 0 -- -- 76
2020-05-03 22:00:00 19.6 4 Nordeste 6 Norte 0 -- -- 69
2020-05-03 21:00:00 22 2 Sudeste 10 Sudeste 0 -- -- 57
2020-05-03 20:00:00 24.1 6 Sur 14 Sudeste 0 -- -- 54
2020-05-03 19:00:00 25.5 9 Sudoeste 16 Sur 0 -- -- 53
2020-05-03 18:00:00 26.2 11 Sur 15 Sur 0 -- -- 59
2020-05-03 17:00:00 25.9 9 Sur 18 Sur 0 -- -- 57
2020-05-03 16:00:00 26 12 Sudoeste 18 Sur 0 -- -- 59
2020-05-03 15:00:00 25.3 13 Sur 18 Sudoeste 0 -- -- 62
2020-05-03 14:00:00 26 10 Sur 19 Sudoeste 0 -- -- 53
2020-05-03 13:00:00 25 8 Sudeste 16 Sudoeste 0 -- -- 54
2020-05-03 12:00:00 25.5 5 Sur 10 Sudoeste 0 -- -- 53
2020-05-03 11:00:00 24.1 6 Sur 10 Sur 0 -- -- 59
2020-05-03 10:00:00 23 0 Calma 4 Sur 0 -- -- 61
2020-05-03 09:00:00 18.9 0 Calma 4 Sudoeste 0 -- -- 78
2020-05-03 08:00:00 15.7 2 Sur 5 Norte 0 -- -- 86
2020-05-03 07:00:00 15.5 0 Calma 8 Norte 0 -- -- 85
2020-05-03 06:00:00 15.2 2 Nordeste 4 Nordeste 0 -- -- 85
2020-05-03 05:00:00 15.7 0 Calma 6 Norte 0 -- -- 85
2020-05-03 04:00:00 15.8 4 Norte 8 Norte 0 -- -- 82
2020-05-03 03:00:00 15.9 5 Norte 8 Norte 0 -- -- 83
2020-05-03 02:00:00 16.3 3 Norte 5 Norte 0 -- -- 82
2020-05-03 01:00:00 17.7 0 Calma 4 Sudeste 0 -- -- 76
2020-05-03 00:00:00 19.8 2 Nordeste 10 Norte 0 -- -- 68
2020-05-02 23:00:00 18.8 3 Norte 6 Norte 0 -- -- 75
2020-05-02 22:00:00 20.3 4 Norte 6 Norte 0 -- -- 67
2020-05-02 21:00:00 23.7 2 Sur 5 Sudoeste 0 -- -- 60
2020-05-02 20:00:00 25.3 2 Sudoeste 9 Sudoeste 0 -- -- 55
2020-05-02 19:00:00 26 6 Sur 10 Sur 0 -- -- 52
2020-05-02 18:00:00 25.9 6 Sudoeste 12 Sur 0 -- -- 58
2020-05-02 17:00:00 25.8 6 Sur 13 Sudoeste 0 -- -- 54
2020-05-02 16:00:00 26 8 Sur 14 Sur 0 -- -- 55
2020-05-02 15:00:00 26.4 10 Sur 18 Sur 0 -- -- 50
2020-05-02 14:00:00 25.8 11 Sur 15 Sudoeste 0 -- -- 57
2020-05-02 13:00:00 25.2 8 Sur 13 Sudoeste 0 -- -- 58
2020-05-02 12:00:00 22.5 10 Sur 15 Sur 0 -- -- 70
2020-05-02 11:00:00 22.3 8 Sudoeste 12 Sudoeste 0 -- -- 73
2020-05-02 10:00:00 21 5 Sudoeste 8 Sudoeste 0 -- -- 68
2020-05-02 09:00:00 18 0 Calma 6 Nordeste 0 -- -- 80
2020-05-02 08:00:00 14 3 Norte 5 Nordeste 0 -- -- 90
2020-05-02 07:00:00 13.9 3 Nordeste 7 Norte 0 -- -- 88
2020-05-02 06:00:00 14.8 4 Nordeste 8 Norte 0 -- -- 88
2020-05-02 05:00:00 14.7 3 Norte 6 Nordeste 0 -- -- 86
2020-05-02 04:00:00 15.4 0 Calma 8 Norte 0 -- -- 84
2020-05-02 03:00:00 16.2 3 Norte 9 Sudeste 0 -- -- 82
2020-05-02 02:00:00 16.6 0 Calma 10 Nordeste 0 -- -- 82
2020-05-02 01:00:00 17.1 3 Sur 12 Norte 0 -- -- 85
2020-05-02 00:00:00 17.3 4 Sur 7 Sudeste 0 -- -- 86
2020-05-01 23:00:00 17.6 3 Nordeste 5 Nordeste 0 -- -- 86
2020-05-01 22:00:00 18.5 0 Calma 5 Sur 0 -- -- 81
2020-05-01 21:00:00 20.2 4 Sur 12 Sur 0 -- -- 74
2020-05-01 20:00:00 21.9 7 Sur 16 Sudeste 0 -- -- 66
2020-05-01 19:00:00 22.8 8 Sur 15 Sur 0 -- -- 62
2020-05-01 18:00:00 23.1 8 Sur 18 Sudeste 0 -- -- 60
2020-05-01 17:00:00 24.1 11 Sur 18 Sudeste 0 -- -- 56
2020-05-01 16:00:00 23.5 12 Sudeste 20 Sudeste 0 -- -- 51
2020-05-01 15:00:00 21.8 14 Sudeste 25 Sur 0 -- -- 63
2020-05-01 14:00:00 23.8 12 Sudeste 22 Sudeste 0 -- -- 50
2020-05-01 13:00:00 22.4 13 Sur 19 Sur 0 -- -- 58
2020-05-01 12:00:00 23.1 14 Sur 18 Sur 0 -- -- 53
2020-05-01 11:00:00 22.7 6 Sur 10 Sur 0 -- -- 54
2020-05-01 10:00:00 21.3 4 Sur 8 Sur 0 -- -- 63
2020-05-01 09:00:00 18.3 0 Calma 9 Norte 0 -- -- 73
2020-05-01 08:00:00 14.3 3 Nordeste 8 Norte 0 -- -- 82
2020-05-01 07:00:00 14.3 3 Norte 9 Nordeste 0 -- -- 80
2020-05-01 06:00:00 14.8 4 Norte 7 Norte 0 -- -- 78
2020-05-01 05:00:00 15.5 4 Nordeste 9 Nordeste 0 -- -- 73
2020-05-01 04:00:00 15.7 5 Nordeste 11 Nordeste 0 -- -- 73
2020-05-01 03:00:00 15.8 4 Norte 8 Norte 0 -- -- 74
2020-05-01 02:00:00 16.7 3 Norte 10 Norte 0 -- -- 71
2020-05-01 01:00:00 16.8 3 Nordeste 9 Norte 0 -- -- 71
2020-05-01 00:00:00 18.1 3 Norte 14 Nordeste 0 -- -- 66
2020-04-30 23:00:00 19.4 6 Norte 23 Noroeste 0 -- -- 62
2020-04-30 22:00:00 21.4 10 Noroeste 33 Noroeste 0 -- -- 53
2020-04-30 21:00:00 22.7 16 Noroeste 31 Oeste 0 -- -- 48
2020-04-30 20:00:00 21.9 16 Oeste 32 Noroeste 0 -- -- 54
2020-04-30 19:00:00 20.5 15 Oeste 43 Sudoeste 0 -- -- 70
2020-04-30 18:00:00 23.1 21 Oeste 48 Sudoeste 0 -- -- 53
2020-04-30 17:00:00 19.6 29 Sudoeste 46 Sudoeste 0 -- -- 76
2020-04-30 16:00:00 19.9 32 Sudoeste 52 Sudoeste 0 -- -- 73
2020-04-30 15:00:00 19.7 31 Sudoeste 49 Sudoeste 0 -- -- 74
2020-04-30 14:00:00 24.8 23 Oeste 50 Oeste 0 -- -- 46
2020-04-30 13:00:00 24.6 23 Noroeste 45 Noroeste 0 -- -- 44
2020-04-30 12:00:00 23.5 23 Noroeste 43 Noroeste 0 -- -- 45
2020-04-30 11:00:00 22.2 20 Noroeste 37 Oeste 0 -- -- 52
2020-04-30 10:00:00 19.8 15 Noroeste 30 Noroeste 0 -- -- 61
2020-04-30 09:00:00 17.8 9 Noroeste 21 Noroeste 0 -- -- 64
2020-04-30 08:00:00 13.3 6 Norte 12 Norte 0 -- -- 77
2020-04-30 07:00:00 13.4 4 Norte 9 Norte 0 -- -- 75
2020-04-30 06:00:00 14.7 6 Norte 14 Norte 0 -- -- 68
2020-04-30 05:00:00 15.1 8 Norte 13 Norte 0 -- -- 65
2020-04-30 04:00:00 15.7 8 Norte 14 Norte 0 -- -- 64
2020-04-30 03:00:00 15.7 10 Norte 16 Norte 0 -- -- 65
2020-04-30 02:00:00 15.4 0 Calma 18 Noroeste 0 -- -- 69
2020-04-30 01:00:00 16.5 9 Norte 16 Noroeste 0 -- -- 65
2020-04-30 00:00:00 18 6 Este 21 Noroeste 0 -- -- 62
2020-04-29 23:00:00 19.1 5 Norte 22 Noroeste 0 -- -- 57
2020-04-29 22:00:00 17.1 0 Calma 10 Este 0 -- -- 78
2020-04-29 21:00:00 19.3 4 Sudeste 20 Sudoeste 0 -- -- 69
2020-04-29 20:00:00 20.1 13 Sudoeste 33 Sudoeste 0 -- -- 67
2020-04-29 19:00:00 21.5 13 Sudoeste 31 Sudoeste 0 -- -- 63
2020-04-29 18:00:00 21.8 16 Sudoeste 32 Sudoeste 0 -- -- 60
2020-04-29 17:00:00 20.9 22 Sudoeste 39 Sudoeste 0 -- -- 63
2020-04-29 16:00:00 20.5 19 Sudoeste 34 Sudoeste 0 -- -- 65
2020-04-29 15:00:00 21.1 10 Sur 21 Sudoeste 0 -- -- 67
2020-04-29 14:00:00 21.5 10 Sur 23 Sur 0 -- -- 61
2020-04-29 13:00:00 21.8 7 Sur 20 Sur 0 -- -- 53
2020-04-29 12:00:00 21.3 11 Sur 16 Sur 0 -- -- 56
2020-04-29 11:00:00 20.9 8 Sur 12 Sur 0 -- -- 61
2020-04-29 10:00:00 19.7 4 Sudoeste 8 Sudoeste 0 -- -- 64
2020-04-29 09:00:00 15.8 4 Nordeste 11 Norte 0 -- -- 70
2020-04-29 08:00:00 13 5 Nordeste 15 Norte 0 -- -- 72
2020-04-29 07:00:00 12.8 4 Norte 12 Norte 0 -- -- 74
2020-04-29 06:00:00 14.6 8 Norte 16 Norte 0 -- -- 68
2020-04-29 05:00:00 14.9 8 Norte 18 Norte 0 -- -- 69
2020-04-29 04:00:00 14.4 6 Norte 17 Norte 0 -- -- 72
2020-04-29 03:00:00 14.2 5 Norte 18 Norte 0 -- -- 75
2020-04-29 02:00:00 15.2 5 Norte 14 Norte 0 -- -- 70
2020-04-29 01:00:00 15.8 7 Norte 14 Nordeste 0 -- -- 70
2020-04-29 00:00:00 15.4 6 Norte 11 Nordeste 0 -- -- 75
2020-04-28 23:00:00 16.5 5 Norte 9 Norte 0 -- -- 73
2020-04-28 22:00:00 18 5 Noroeste 19 Oeste 0 -- -- 72
2020-04-28 21:00:00 19.4 6 Oeste 19 Oeste 0 -- -- 68
2020-04-28 20:00:00 20.1 7 Oeste 16 Oeste 0 -- -- 65
2020-04-28 19:00:00 19.6 6 Sudoeste 28 Sudoeste 0 -- -- 71
2020-04-28 18:00:00 19.4 21 Sudoeste 31 Sudoeste 0 -- -- 70
2020-04-28 17:00:00 20.7 16 Sudoeste 28 Sudoeste 0 -- -- 61
2020-04-28 16:00:00 19.7 16 Sudoeste 25 Sudoeste 0 -- -- 67
2020-04-28 15:00:00 20.1 7 Sudoeste 20 Sudoeste 0 -- -- 70
2020-04-28 14:00:00 19.8 6 Sudoeste 17 Sudoeste 0 -- -- 67
2020-04-28 13:00:00 18.6 9 Sudoeste 15 Sudoeste 0 -- -- 71
2020-04-28 12:00:00 18.4 6 Sur 12 Sur 0 -- -- 67
2020-04-28 11:00:00 17.1 6 Sudoeste 12 Sur 0 -- -- 76
2020-04-28 10:00:00 16.1 2 Norte 5 Noroeste 0 -- -- 75
2020-04-28 09:00:00 14.5 3 Norte 10 Norte 0 -- -- 77
2020-04-28 08:00:00 13.1 3 Nordeste 8 Nordeste 0 -- -- 81
2020-04-28 07:00:00 13 4 Norte 13 Norte 0 -- -- 78
2020-04-28 06:00:00 12.7 8 Norte 12 Norte 0 -- -- 80
2020-04-28 05:00:00 12.1 3 Nordeste 9 Norte 0 -- -- 86
2020-04-28 04:00:00 11.8 4 Norte 8 Norte 0 -- -- 89
2020-04-28 03:00:00 13.3 2 Nordeste 15 Noroeste 0 -- -- 85
2020-04-28 02:00:00 14.1 9 Noroeste 14 Noroeste 0 -- -- 87
2020-04-28 01:00:00 13.6 0 Calma 8 Nordeste 0 -- -- 88
2020-04-28 00:00:00 14.5 5 Norte 10 Norte 0 -- -- 86
2020-04-27 23:00:00 14.5 4 Norte 7 Norte 0 -- -- 86
2020-04-27 22:00:00 15.6 2 Sudeste 5 Sudeste 0 -- -- 81
2020-04-27 21:00:00 18 4 Sudoeste 20 Oeste 0 -- -- 71
2020-04-27 20:00:00 19.6 7 Oeste 25 Sudoeste 0 -- -- 68
2020-04-27 19:00:00 19.9 18 Oeste 33 Sudoeste 0 -- -- 65
2020-04-27 18:00:00 20 18 Sudoeste 31 Oeste 0 -- -- 62
2020-04-27 17:00:00 19.4 15 Sudoeste 27 Sudoeste 0 -- -- 63
2020-04-27 16:00:00 19.1 11 Sudoeste 23 Sudoeste 0 -- -- 62
2020-04-27 15:00:00 19.3 11 Sudoeste 21 Sur 0 -- -- 65
2020-04-27 14:00:00 18.9 5 Sudoeste 21 Sudoeste 0 -- -- 66
2020-04-27 13:00:00 18.2 13 Sudoeste 23 Sudoeste 0 -- -- 69
2020-04-27 12:00:00 17.3 20 Sudoeste 28 Sudoeste 0 -- -- 68
2020-04-27 11:00:00 17.9 10 Sudoeste 18 Sudoeste 0 -- -- 65
2020-04-27 10:00:00 17.2 4 Sudoeste 9 Sur 0 -- -- 65
2020-04-27 09:00:00 14.4 2 Norte 9 Norte 0 -- -- 78
2020-04-27 08:00:00 12.6 2 Norte 12 Norte 0 -- -- 83
2020-04-27 07:00:00 12.6 7 Norte 12 Nordeste 0 -- -- 79
2020-04-27 06:00:00 13.1 5 Norte 14 Norte 0 -- -- 77
2020-04-27 05:00:00 13.6 11 Norte 16 Norte 0 -- -- 73
2020-04-27 04:00:00 13.3 10 Norte 18 Norte 0 -- -- 78
2020-04-27 03:00:00 13.1 3 Norte 5 Este 0 -- -- 81
2020-04-27 02:00:00 14.5 4 Nordeste 12 Norte 0 -- -- 76
2020-04-27 01:00:00 16.1 4 Noroeste 17 Noroeste 0 -- -- 66
2020-04-27 00:00:00 15.9 0 Calma 17 Noroeste 0 -- -- 68